Time;durP1;ratioP1;P1;durP2;ratioP2;P2;SDS_P1;SDS_P2;PMS_P1;PMS_P2;Temp;Humidity;BMP_temperature;BMP_pressure;BME280_temperature;BME280_humidity;BME280_pressure;Samples;Min_cycle;Max_cycle;Signal;HPM_P1;HPM_P2
2022/06/26 00:01:34;;;;;;;4.38;2.40;;;13.80;99.90;;;;;;5039586;28;20568;-78
2022/06/26 00:04:05;;;;;;;3.22;2.30;;;13.90;99.90;;;;;;5039356;28;20190;-76
2022/06/26 00:06:37;;;;;;;3.70;2.40;;;14.00;99.90;;;;;;5051465;28;20190;-77
2022/06/26 00:09:08;;;;;;;4.53;2.47;;;14.10;99.90;;;;;;5043385;28;20200;-77
2022/06/26 00:11:39;;;;;;;4.72;2.22;;;14.20;99.90;;;;;;5041873;28;20193;-77
2022/06/26 00:14:11;;;;;;;2.97;2.10;;;14.40;99.90;;;;;;5029294;28;20191;-77
2022/06/26 00:16:42;;;;;;;5.35;2.13;;;14.50;99.90;;;;;;5037748;28;20205;-76
2022/06/26 00:19:13;;;;;;;4.20;2.47;;;14.70;99.90;;;;;;5042239;28;20198;-76
2022/06/26 00:21:43;;;;;;;2.70;2.05;;;14.90;99.90;;;;;;5038057;28;20198;-77
2022/06/26 00:24:14;;;;;;;5.78;1.92;;;15.00;99.90;;;;;;5042995;28;20220;-76
2022/06/26 00:26:45;;;;;;;4.55;2.05;;;15.10;99.90;;;;;;5046215;28;20605;-77
2022/06/26 00:29:17;;;;;;;3.53;1.95;;;15.10;99.90;;;;;;5033687;28;20202;-76
2022/06/26 00:31:48;;;;;;;3.97;1.80;;;15.20;99.90;;;;;;5043044;28;20206;-76
2022/06/26 00:34:19;;;;;;;4.10;2.10;;;15.20;99.90;;;;;;5029480;28;20215;-77
2022/06/26 00:36:49;;;;;;;2.70;2.08;;;15.30;99.90;;;;;;5040617;28;20245;-77
2022/06/26 00:39:20;;;;;;;4.88;2.10;;;15.40;99.90;;;;;;5031584;28;20206;-77
2022/06/26 00:41:51;;;;;;;2.15;1.90;;;15.40;99.90;;;;;;5042583;28;20209;-76
2022/06/26 00:44:26;;;;;;;3.28;1.90;;;15.40;99.90;;;;;;5043349;28;20247;-76
2022/06/26 00:46:56;;;;;;;3.22;2.13;;;15.50;99.90;;;;;;5034933;28;20201;-76
2022/06/26 00:49:27;;;;;;;2.70;1.85;;;15.40;99.90;;;;;;5042550;28;20204;-77
2022/06/26 00:51:59;;;;;;;3.70;1.92;;;15.50;99.90;;;;;;5029855;28;20191;-77
2022/06/26 00:54:31;;;;;;;4.47;2.00;;;15.60;99.90;;;;;;5042741;28;20198;-77
2022/06/26 00:57:02;;;;;;;4.28;1.80;;;15.70;99.90;;;;;;5042064;28;20189;-77
2022/06/26 00:59:35;;;;;;;2.55;1.80;;;15.70;99.90;;;;;;5048467;28;20218;-76
2022/06/26 01:02:06;;;;;;;3.63;1.90;;;15.70;99.90;;;;;;5039998;28;20197;-76
2022/06/26 01:04:37;;;;;;;3.13;1.77;;;15.80;99.90;;;;;;5046641;28;20650;-76
2022/06/26 01:07:09;;;;;;;3.97;1.90;;;15.80;99.90;;;;;;5049473;28;20205;-78
2022/06/26 01:09:39;;;;;;;6.45;1.90;;;15.90;99.90;;;;;;5043629;28;20664;-76
2022/06/26 01:12:11;;;;;;;3.90;2.00;;;16.00;99.90;;;;;;5042757;28;20205;-77
2022/06/26 01:14:43;;;;;;;3.63;1.90;;;16.00;99.90;;;;;;5043064;28;20213;-77
2022/06/26 01:17:14;;;;;;;2.53;1.75;;;16.10;99.90;;;;;;5035161;28;20209;-77
2022/06/26 01:19:45;;;;;;;3.88;2.00;;;16.10;99.90;;;;;;5040614;28;20210;-77
2022/06/26 01:22:16;;;;;;;3.50;1.95;;;16.20;99.90;;;;;;5037093;28;20708;-78
2022/06/26 01:24:48;;;;;;;2.15;1.90;;;16.20;99.90;;;;;;5039850;28;20198;-77
2022/06/26 01:27:19;;;;;;;5.15;2.08;;;16.30;99.90;;;;;;5032769;28;20193;-77
2022/06/26 01:29:50;;;;;;;2.83;1.80;;;16.30;99.90;;;;;;5038050;28;20197;-77
2022/06/26 01:32:20;;;;;;;4.30;2.00;;;16.50;99.90;;;;;;5044785;28;20185;-77
2022/06/26 01:34:51;;;;;;;2.92;1.95;;;16.60;99.90;;;;;;5038517;28;20194;-77
2022/06/26 01:37:22;;;;;;;3.38;2.10;;;16.70;99.90;;;;;;5035302;28;20708;-77
2022/06/26 01:39:54;;;;;;;2.92;1.88;;;16.80;99.90;;;;;;5040114;28;20213;-77
2022/06/26 01:42:25;;;;;;;2.97;1.90;;;16.80;99.90;;;;;;5023302;28;20670;-77
2022/06/26 01:44:56;;;;;;;3.72;1.90;;;16.90;99.90;;;;;;5044809;28;20186;-77
2022/06/26 01:47:26;;;;;;;4.13;1.80;;;17.00;99.90;;;;;;5030643;28;20698;-77
2022/06/26 01:49:57;;;;;;;2.95;2.03;;;17.00;99.90;;;;;;5034296;28;20205;-77
2022/06/26 01:52:28;;;;;;;3.22;2.13;;;17.00;99.90;;;;;;5031442;28;20205;-78
2022/06/26 01:55:01;;;;;;;2.50;1.98;;;17.10;99.90;;;;;;5036055;28;20190;-77
2022/06/26 01:57:32;;;;;;;2.60;1.67;;;17.10;99.90;;;;;;5026102;28;20250;-78
2022/06/26 02:00:02;;;;;;;3.28;1.90;;;17.20;99.90;;;;;;5032780;28;20218;-78
2022/06/26 02:02:33;;;;;;;5.05;2.10;;;17.20;99.90;;;;;;5032151;28;20216;-78
2022/06/26 02:05:03;;;;;;;2.88;2.13;;;17.20;99.90;;;;;;5030631;28;20209;-78
2022/06/26 02:07:34;;;;;;;6.13;2.25;;;17.20;99.90;;;;;;5038607;28;20193;-77
2022/06/26 02:15:41;;;;;;;3.80;2.10;;;17.30;99.90;;;;;;5043053;28;20239;-77
2022/06/26 02:18:12;;;;;;;3.25;2.00;;;17.30;99.90;;;;;;5038176;28;20559;-77
2022/06/26 02:20:43;;;;;;;2.95;1.67;;;17.30;99.90;;;;;;5039316;28;20241;-78
2022/06/26 02:23:15;;;;;;;2.15;1.80;;;17.30;99.90;;;;;;5043883;28;20193;-78
2022/06/26 02:25:48;;;;;;;3.13;1.80;;;17.40;99.90;;;;;;5034550;28;20198;-77
2022/06/26 02:28:18;;;;;;;5.72;3.03;;;17.40;99.90;;;;;;5036735;28;20189;-78
2022/06/26 02:30:50;;;;;;;5.72;2.88;;;17.50;99.90;;;;;;5035766;28;20199;-78
2022/06/26 02:33:22;;;;;;;5.13;3.20;;;17.50;99.90;;;;;;5036351;28;20320;-78
2022/06/26 02:35:54;;;;;;;4.97;2.75;;;17.50;99.90;;;;;;5036435;28;20264;-78
2022/06/26 02:38:25;;;;;;;3.75;2.47;;;17.60;99.90;;;;;;5036194;28;20193;-77
2022/06/26 02:40:58;;;;;;;5.50;3.15;;;17.60;99.90;;;;;;5034521;28;20230;-78
2022/06/26 02:43:28;;;;;;;6.63;3.88;;;17.70;99.90;;;;;;5034701;28;20695;-77
2022/06/26 02:45:59;;;;;;;6.63;4.20;;;17.70;99.90;;;;;;5040558;28;20194;-77
2022/06/26 02:48:30;;;;;;;4.97;4.10;;;17.70;99.90;;;;;;5044059;28;20190;-77
2022/06/26 02:51:00;;;;;;;6.88;3.90;;;17.60;99.90;;;;;;5033569;28;20204;-78
2022/06/26 02:53:31;;;;;;;5.70;3.55;;;17.60;99.90;;;;;;5039986;28;20205;-78
2022/06/26 02:56:03;;;;;;;6.82;3.33;;;17.50;99.90;;;;;;5041571;28;20186;-78
2022/06/26 02:58:34;;;;;;;4.72;2.83;;;17.60;99.90;;;;;;5044442;28;20194;-78
2022/06/26 03:01:05;;;;;;;5.47;2.80;;;17.60;99.90;;;;;;5048072;28;20230;-78
2022/06/26 03:03:35;;;;;;;3.33;2.65;;;17.70;99.90;;;;;;5038277;28;20198;-77
2022/06/26 03:06:06;;;;;;;3.75;2.15;;;17.80;99.90;;;;;;5040499;28;20664;-78
2022/06/26 03:08:37;;;;;;;4.22;2.63;;;17.90;99.90;;;;;;5046051;28;20672;-78
2022/06/26 03:11:09;;;;;;;5.05;2.85;;;17.90;99.90;;;;;;5042267;28;20213;-78
2022/06/26 03:13:40;;;;;;;6.60;3.10;;;18.00;99.90;;;;;;5045683;28;20209;-79
2022/06/26 03:16:11;;;;;;;3.50;2.78;;;18.10;99.90;;;;;;5051762;28;20192;-77
2022/06/26 03:18:41;;;;;;;4.72;2.83;;;18.20;99.90;;;;;;5038102;28;20672;-78
2022/06/26 03:21:12;;;;;;;6.35;3.28;;;18.20;99.90;;;;;;5035832;28;20214;-77
2022/06/26 03:26:31;;;;;;;3.63;1.95;;;18.40;99.90;;;;;;5043607;28;20567;-78
2022/06/26 03:29:03;;;;;;;2.90;1.88;;;18.50;99.90;;;;;;5040311;28;20244;-78
2022/06/26 03:31:34;;;;;;;2.55;1.65;;;18.50;99.90;;;;;;5045108;28;20197;-78
2022/06/26 03:34:05;;;;;;;2.15;1.10;;;18.60;99.90;;;;;;5039444;28;20214;-78
2022/06/26 03:36:36;;;;;;;3.88;2.13;;;18.60;99.90;;;;;;5052526;28;20248;-78
2022/06/26 03:39:07;;;;;;;4.75;2.10;;;18.80;99.90;;;;;;5036859;28;20209;-77
2022/06/26 03:41:40;;;;;;;3.00;1.90;;;18.90;99.90;;;;;;5041834;28;20236;-79
2022/06/26 03:44:10;;;;;;;3.53;2.40;;;18.90;99.90;;;;;;5050664;28;20204;-78
2022/06/26 03:46:41;;;;;;;4.55;2.40;;;18.90;99.90;;;;;;5039469;28;20661;-78
2022/06/26 03:49:12;;;;;;;2.20;1.52;;;19.00;99.90;;;;;;5043613;28;20197;-78
2022/06/26 03:51:42;;;;;;;1.83;1.23;;;19.00;99.90;;;;;;5036938;28;20209;-78
2022/06/26 03:54:13;;;;;;;2.47;1.45;;;19.00;99.90;;;;;;5035176;28;20198;-78
2022/06/26 03:56:46;;;;;;;4.53;1.60;;;18.90;99.90;;;;;;5037135;28;20198;-78
2022/06/26 03:59:16;;;;;;;2.35;1.48;;;18.90;99.90;;;;;;5045889;28;20199;-78
2022/06/26 04:01:47;;;;;;;3.35;1.40;;;18.80;99.90;;;;;;5039680;28;20225;-78
2022/06/26 04:04:18;;;;;;;2.22;1.20;;;18.80;99.90;;;;;;5042349;28;20197;-78
2022/06/26 04:06:48;;;;;;;2.75;1.33;;;18.90;99.90;;;;;;5045355;28;20190;-78
2022/06/26 04:09:19;;;;;;;3.50;1.67;;;18.90;99.90;;;;;;5041398;28;20256;-78
2022/06/26 04:11:51;;;;;;;3.97;1.40;;;18.90;99.90;;;;;;5046116;28;20236;-79
2022/06/26 04:14:22;;;;;;;3.22;1.50;;;18.90;99.90;;;;;;5044899;28;20190;-78
2022/06/26 04:16:53;;;;;;;3.03;1.50;;;19.00;99.90;;;;;;5048963;28;20197;-78
2022/06/26 04:19:23;;;;;;;2.58;1.48;;;19.00;99.90;;;;;;5045211;28;20203;-77
2022/06/26 04:21:54;;;;;;;2.28;1.70;;;19.00;99.90;;;;;;5043459;28;20394;-78
2022/06/26 04:24:25;;;;;;;2.80;1.52;;;19.10;99.90;;;;;;5044329;28;20593;-78
2022/06/26 04:26:57;;;;;;;2.50;1.50;;;19.10;99.90;;;;;;5039964;28;20193;-78
2022/06/26 04:29:28;;;;;;;4.25;1.50;;;19.20;99.90;;;;;;5038952;28;20202;-79
2022/06/26 04:31:59;;;;;;;3.40;1.55;;;19.30;99.90;;;;;;5040428;28;20649;-78
2022/06/26 04:34:29;;;;;;;2.83;1.50;;;19.30;99.90;;;;;;5042925;28;20712;-79
2022/06/26 04:37:00;;;;;;;3.85;1.30;;;19.20;99.90;;;;;;5043414;28;20229;-79
2022/06/26 04:39:30;;;;;;;3.15;1.38;;;19.20;99.90;;;;;;5046227;28;20190;-79
2022/06/26 04:42:03;;;;;;;1.95;1.27;;;19.20;99.90;;;;;;5050545;28;20263;-79
2022/06/26 04:44:34;;;;;;;2.15;1.58;;;19.20;99.90;;;;;;5043947;28;20203;-79
2022/06/26 04:47:04;;;;;;;3.28;1.35;;;19.20;99.90;;;;;;5038066;28;20198;-79
2022/06/26 04:49:35;;;;;;;2.75;1.50;;;19.20;99.90;;;;;;5040219;28;20194;-79
2022/06/26 04:52:06;;;;;;;2.90;1.60;;;19.10;99.90;;;;;;5042561;28;20591;-80
2022/06/26 04:54:37;;;;;;;2.40;1.40;;;19.00;99.90;;;;;;5040314;28;20198;-79
2022/06/26 04:57:10;;;;;;;1.95;1.40;;;19.00;99.90;;;;;;5039034;28;20688;-78
2022/06/26 04:59:40;;;;;;;2.05;1.30;;;18.90;99.90;;;;;;5041235;28;20205;-79
2022/06/26 05:02:11;;;;;;;2.70;1.60;;;18.80;99.90;;;;;;5035944;28;20217;-79
2022/06/26 05:04:42;;;;;;;2.92;1.30;;;18.80;99.90;;;;;;5046151;28;20186;-78
2022/06/26 05:07:12;;;;;;;2.97;1.48;;;18.70;99.90;;;;;;5036368;28;20194;-79
2022/06/26 05:09:43;;;;;;;2.05;1.55;;;18.60;99.90;;;;;;5041986;28;20315;-78
2022/06/26 05:12:16;;;;;;;1.70;1.40;;;18.60;99.90;;;;;;5041849;28;20206;-79
2022/06/26 05:14:46;;;;;;;2.60;1.48;;;18.60;99.90;;;;;;5034171;28;20194;-79
2022/06/26 05:17:17;;;;;;;3.03;1.90;;;18.50;99.90;;;;;;5043782;28;20209;-78
2022/06/26 05:19:48;;;;;;;3.05;1.58;;;18.40;99.90;;;;;;5035899;28;20201;-79
2022/06/26 05:22:19;;;;;;;3.72;1.80;;;18.30;99.90;;;;;;5042251;28;20228;-78
2022/06/26 05:24:50;;;;;;;3.17;1.40;;;18.30;99.90;;;;;;5036865;28;20199;-78
2022/06/26 05:27:22;;;;;;;2.53;1.17;;;18.30;99.90;;;;;;5039383;28;20214;-78
2022/06/26 05:29:53;;;;;;;3.40;1.50;;;18.20;99.90;;;;;;5039716;28;20198;-79
2022/06/26 05:32:24;;;;;;;3.13;1.50;;;18.20;99.90;;;;;;5035851;28;20193;-78
2022/06/26 05:34:54;;;;;;;6.30;1.38;;;18.20;99.90;;;;;;5040544;28;20197;-78
2022/06/26 05:37:25;;;;;;;3.78;1.40;;;18.20;99.90;;;;;;5049882;28;20241;-79
2022/06/26 05:39:56;;;;;;;2.08;1.23;;;18.20;99.90;;;;;;5038328;28;20239;-79
2022/06/26 05:42:28;;;;;;;3.13;1.40;;;18.20;99.90;;;;;;5041746;28;20217;-80
2022/06/26 05:44:59;;;;;;;4.28;2.25;;;18.10;99.90;;;;;;5048629;28;20197;-79
2022/06/26 05:47:29;;;;;;;13.07;6.70;;;18.00;99.90;;;;;;5038271;28;20174;-79
2022/06/26 05:50:00;;;;;;;1.70;1.10;;;18.00;99.90;;;;;;5032647;28;20182;-79
2022/06/26 05:52:31;;;;;;;2.22;1.20;;;17.90;99.90;;;;;;5041670;28;20221;-78
2022/06/26 05:55:01;;;;;;;2.28;1.17;;;17.80;99.90;;;;;;5041572;28;20195;-78
2022/06/26 05:57:34;;;;;;;2.95;1.48;;;17.80;99.90;;;;;;5041463;28;20190;-79
2022/06/26 06:00:05;;;;;;;3.78;1.70;;;17.80;99.90;;;;;;5035195;28;20195;-79
2022/06/26 06:02:36;;;;;;;2.63;1.30;;;17.70;99.90;;;;;;5040907;28;20225;-80
2022/06/26 06:05:07;;;;;;;2.13;1.20;;;17.60;99.90;;;;;;5033561;28;20579;-79
2022/06/26 06:07:38;;;;;;;145.95;8.88;;;17.50;99.90;;;;;;5039108;28;20186;-78
2022/06/26 06:10:10;;;;;;;12.18;3.30;;;17.40;99.90;;;;;;5042289;28;20193;-79
2022/06/26 06:12:43;;;;;;;4.28;1.70;;;17.30;99.90;;;;;;5040811;28;20194;-79
2022/06/26 06:15:14;;;;;;;5.03;2.28;;;17.30;99.90;;;;;;5037242;28;20186;-79
2022/06/26 06:17:45;;;;;;;5.32;2.75;;;17.20;99.90;;;;;;5042994;28;20189;-78
2022/06/26 06:20:18;;;;;;;1.98;1.10;;;17.10;99.90;;;;;;5042292;28;20186;-80
2022/06/26 06:22:51;;;;;;;3.72;1.27;;;17.00;99.90;;;;;;5036720;28;20236;-79
2022/06/26 06:25:23;;;;;;;4.35;1.90;;;16.90;99.90;;;;;;5033274;28;20190;-78
2022/06/26 06:27:55;;;;;;;3.50;1.52;;;16.70;99.90;;;;;;5042654;28;20201;-79
2022/06/26 06:30:26;;;;;;;2.92;1.70;;;16.60;99.90;;;;;;5052485;28;20197;-78
2022/06/26 06:32:58;;;;;;;3.40;1.63;;;16.50;99.90;;;;;;5046178;28;20232;-79
2022/06/26 06:35:29;;;;;;;3.88;1.70;;;16.40;99.90;;;;;;5045018;28;20285;-79
2022/06/26 06:37:59;;;;;;;8.82;2.60;;;16.30;99.90;;;;;;5044854;28;20243;-78
2022/06/26 06:40:30;;;;;;;4.72;3.00;;;16.20;99.90;;;;;;5041366;28;20190;-79
2022/06/26 06:43:02;;;;;;;4.97;2.38;;;16.10;99.90;;;;;;5038711;28;20218;-78
2022/06/26 06:45:33;;;;;;;5.40;2.40;;;16.00;99.90;;;;;;5036721;28;20206;-78
2022/06/26 06:48:04;;;;;;;4.00;2.10;;;15.90;99.90;;;;;;5044825;28;20650;-78
2022/06/26 06:50:34;;;;;;;4.85;2.55;;;15.80;99.90;;;;;;5037903;28;20558;-79
2022/06/26 06:53:05;;;;;;;5.03;2.55;;;15.70;99.90;;;;;;5045582;28;20193;-78
2022/06/26 06:55:36;;;;;;;4.20;2.33;;;15.60;99.90;;;;;;5046377;28;20251;-78
2022/06/26 06:58:08;;;;;;;6.13;2.53;;;15.60;99.90;;;;;;5040708;28;20595;-78
2022/06/26 07:00:39;;;;;;;4.18;2.53;;;15.50;99.90;;;;;;5030015;28;20211;-79
2022/06/26 07:03:10;;;;;;;5.13;3.47;;;15.50;99.90;;;;;;5035812;28;20218;-79
2022/06/26 07:05:40;;;;;;;6.00;3.97;;;15.40;99.90;;;;;;5035656;28;20198;-78
2022/06/26 07:08:11;;;;;;;5.35;3.58;;;15.20;99.90;;;;;;5036219;28;20195;-78
2022/06/26 07:10:42;;;;;;;5.05;3.47;;;15.10;99.90;;;;;;5035823;28;20206;-78
2022/06/26 07:13:15;;;;;;;5.75;3.58;;;15.10;99.90;;;;;;5036023;28;20220;-78
2022/06/26 07:15:45;;;;;;;6.47;4.15;;;15.00;99.90;;;;;;5038904;28;20201;-78
2022/06/26 07:18:16;;;;;;;7.65;3.90;;;15.00;99.90;;;;;;5032605;28;20194;-78
2022/06/26 07:20:47;;;;;;;6.05;4.32;;;14.90;99.90;;;;;;5034772;28;20225;-78
2022/06/26 07:23:17;;;;;;;6.13;3.00;;;14.80;99.90;;;;;;5035588;28;20704;-78
2022/06/26 07:25:48;;;;;;;4.57;2.90;;;14.80;99.90;;;;;;5035781;28;20198;-78
2022/06/26 07:28:20;;;;;;;5.68;3.08;;;14.80;99.90;;;;;;5034390;28;20217;-78
2022/06/26 07:30:51;;;;;;;4.93;2.85;;;14.70;99.90;;;;;;5027881;28;20236;-78
2022/06/26 07:36:09;;;;;;;6.50;3.28;;;14.60;99.90;;;;;;5031976;28;20260;-78
2022/06/26 07:38:39;;;;;;;5.78;3.30;;;14.50;99.90;;;;;;5029171;28;20202;-78
2022/06/26 07:41:10;;;;;;;4.18;2.80;;;14.50;99.90;;;;;;5030115;28;20198;-78
2022/06/26 07:43:43;;;;;;;5.30;3.15;;;14.40;99.90;;;;;;5032600;28;20229;-78
2022/06/26 07:46:13;;;;;;;6.25;3.25;;;14.40;99.90;;;;;;5028916;28;20224;-78
2022/06/26 07:48:44;;;;;;;5.18;2.83;;;14.30;99.90;;;;;;5030971;28;20194;-78
2022/06/26 07:51:15;;;;;;;5.07;2.70;;;14.40;99.90;;;;;;5035450;28;20202;-78
2022/06/26 07:53:45;;;;;;;4.57;2.75;;;14.30;99.90;;;;;;5031982;28;20198;-78
2022/06/26 07:56:16;;;;;;;5.30;2.80;;;14.30;99.90;;;;;;5031652;28;20195;-77
2022/06/26 07:58:49;;;;;;;4.60;2.63;;;14.30;99.90;;;;;;5031986;28;20202;-77
2022/06/26 08:01:20;;;;;;;4.80;2.78;;;14.30;99.90;;;;;;5035929;28;20209;-77
2022/06/26 08:03:50;;;;;;;5.15;3.03;;;14.20;99.90;;;;;;5038469;28;20224;-77
2022/06/26 08:06:21;;;;;;;5.00;3.15;;;14.20;99.90;;;;;;5051261;28;20209;-77
2022/06/26 08:08:52;;;;;;;5.80;3.35;;;14.20;99.90;;;;;;5044957;28;20206;-78
2022/06/26 08:11:23;;;;;;;11.27;6.15;;;14.20;99.90;;;;;;5048858;28;20196;-79
2022/06/26 08:13:55;;;;;;;19.20;12.15;;;14.30;99.90;;;;;;5052330;28;20189;-78
2022/06/26 08:16:26;;;;;;;9.35;5.07;;;14.20;99.90;;;;;;5051402;28;20688;-78
2022/06/26 08:18:57;;;;;;;7.65;5.18;;;14.10;99.90;;;;;;5033782;28;20210;-78
2022/06/26 08:24:14;;;;;;;11.80;7.38;;;14.00;99.90;;;;;;5039347;28;20202;-78
2022/06/26 08:26:45;;;;;;;10.75;6.60;;;14.00;99.90;;;;;;5034723;28;20201;-79
2022/06/26 08:29:17;;;;;;;10.15;6.22;;;14.00;99.90;;;;;;5035837;28;20201;-78
2022/06/26 08:31:48;;;;;;;12.10;6.28;;;14.00;99.90;;;;;;5038152;28;20195;-79
2022/06/26 08:34:19;;;;;;;9.27;5.28;;;14.00;99.90;;;;;;5042949;28;20217;-79
2022/06/26 08:36:49;;;;;;;8.98;5.68;;;13.90;99.90;;;;;;5043673;28;20280;-79
2022/06/26 08:39:20;;;;;;;9.38;5.32;;;13.90;99.90;;;;;;5037270;28;20210;-78
2022/06/26 08:41:54;;;;;;;7.05;4.32;;;14.00;99.90;;;;;;5035736;28;20593;-80
2022/06/26 08:44:27;;;;;;;9.07;4.65;;;14.00;99.90;;;;;;5035508;28;20617;-79
2022/06/26 08:46:59;;;;;;;7.25;4.40;;;13.90;99.90;;;;;;5040193;28;20195;-79
2022/06/26 08:49:30;;;;;;;7.70;4.38;;;13.90;99.90;;;;;;5043279;28;20646;-78
2022/06/26 08:52:01;;;;;;;6.85;4.13;;;13.90;99.90;;;;;;5047212;28;20189;-78
2022/06/26 08:54:33;;;;;;;7.90;4.40;;;13.90;99.90;;;;;;5037597;28;20628;-78
2022/06/26 08:57:04;;;;;;;7.25;4.10;;;13.90;99.90;;;;;;5034048;28;20194;-79
2022/06/26 08:59:37;;;;;;;6.63;3.90;;;13.80;99.90;;;;;;5045812;28;20197;-78
2022/06/26 09:02:07;;;;;;;8.30;4.57;;;13.80;99.90;;;;;;5036005;28;20218;-80
2022/06/26 09:04:39;;;;;;;11.20;4.78;;;13.70;99.90;;;;;;5043100;28;20198;-78
2022/06/26 09:07:11;;;;;;;10.32;5.10;;;13.70;99.90;;;;;;5040886;28;20221;-79
2022/06/26 09:09:42;;;;;;;7.53;5.00;;;13.70;99.90;;;;;;5039979;28;20200;-78
2022/06/26 09:12:13;;;;;;;10.07;4.72;;;13.70;99.90;;;;;;5033125;28;20206;-78
2022/06/26 09:14:45;;;;;;;7.88;4.97;;;13.70;99.90;;;;;;5034348;28;20213;-79
2022/06/26 09:17:16;;;;;;;12.30;6.88;;;13.70;99.90;;;;;;5039086;28;20259;-79
2022/06/26 09:19:47;;;;;;;10.18;6.15;;;13.60;99.90;;;;;;5045139;28;20198;-78
2022/06/26 09:22:18;;;;;;;10.50;6.10;;;13.60;99.90;;;;;;5042842;28;20241;-79
2022/06/26 09:24:57;;;;;;;11.45;6.13;;;13.60;99.90;;;;;;5032274;28;20657;-79
2022/06/26 09:27:27;;;;;;;11.63;6.25;;;13.60;99.90;;;;;;5036151;28;20538;-78
2022/06/26 09:30:00;;;;;;;10.82;6.43;;;13.60;99.90;;;;;;5042455;28;20196;-78
2022/06/26 09:32:34;;;;;;;13.02;6.05;;;13.50;99.90;;;;;;5037767;28;20210;-79
2022/06/26 09:35:05;;;;;;;10.63;6.30;;;13.50;99.90;;;;;;5038459;28;20190;-78
2022/06/26 09:37:39;;;;;;;9.27;5.82;;;13.50;99.90;;;;;;5044240;28;20229;-79
2022/06/26 09:40:11;;;;;;;9.35;5.88;;;13.50;99.90;;;;;;5032689;28;20190;-78
2022/06/26 09:42:41;;;;;;;8.05;5.60;;;13.50;99.90;;;;;;5029943;28;20229;-78
2022/06/26 09:45:15;;;;;;;8.13;5.20;;;13.50;99.90;;;;;;5042270;28;20201;-78
2022/06/26 09:47:46;;;;;;;11.23;5.80;;;13.50;99.90;;;;;;5029489;28;20202;-79
2022/06/26 09:50:17;;;;;;;9.20;5.05;;;13.40;99.90;;;;;;5036874;28;20198;-79
2022/06/26 09:52:48;;;;;;;8.30;5.30;;;13.40;99.90;;;;;;5029434;28;20198;-79
2022/06/26 09:55:19;;;;;;;7.60;5.05;;;13.30;99.90;;;;;;5036234;28;20193;-78
2022/06/26 09:57:50;;;;;;;8.32;5.20;;;13.30;99.90;;;;;;5043327;28;20216;-78
2022/06/26 10:00:22;;;;;;;11.73;5.45;;;13.30;99.90;;;;;;5037731;28;20197;-78
2022/06/26 10:08:30;;;;;;;9.13;5.10;;;13.30;99.90;;;;;;5036498;28;20204;-78
2022/06/26 10:11:03;;;;;;;8.55;5.32;;;13.30;99.90;;;;;;5038578;28;20205;-78
2022/06/26 10:13:37;;;;;;;9.88;5.43;;;13.30;99.90;;;;;;5040152;28;20198;-79
2022/06/26 10:16:28;;;;;;;8.93;5.28;;;13.30;99.90;;;;;;5038267;28;20321;-78
2022/06/26 10:19:17;;;;;;;11.18;5.72;;;13.30;99.90;;;;;;5034161;28;20621;-78
2022/06/26 10:21:50;;;;;;;11.93;5.95;;;13.30;99.90;;;;;;5031601;28;20195;-78
2022/06/26 10:24:20;;;;;;;10.02;5.80;;;13.30;99.90;;;;;;5040161;28;20229;-78
2022/06/26 10:26:56;;;;;;;9.10;5.22;;;13.30;99.90;;;;;;5040212;28;20194;-78
2022/06/26 10:29:38;;;;;;;8.23;5.05;;;13.40;99.90;;;;;;5046496;28;20201;-79
2022/06/26 10:32:11;;;;;;;7.88;5.03;;;13.50;99.90;;;;;;5045542;28;20244;-78
2022/06/26 10:34:42;;;;;;;8.50;5.28;;;13.60;99.90;;;;;;5040777;28;20206;-79
2022/06/26 10:37:14;;;;;;;7.97;5.35;;;13.60;99.90;;;;;;5044771;28;20653;-78
2022/06/26 10:39:47;;;;;;;11.07;6.30;;;13.60;99.90;;;;;;5040796;28;20225;-78
2022/06/26 10:45:12;;;;;;;10.40;5.55;;;13.70;99.90;;;;;;5045352;28;20228;-78
2022/06/26 10:47:48;;;;;;;9.57;5.43;;;13.70;99.90;;;;;;5039599;28;20281;-78
2022/06/26 10:50:30;;;;;;;9.68;5.88;;;13.70;99.90;;;;;;5038331;28;20719;-78
2022/06/26 10:53:19;;;;;;;7.93;5.22;;;13.70;99.90;;;;;;5039014;28;20231;-78
2022/06/26 10:55:52;;;;;;;9.20;5.55;;;13.70;99.90;;;;;;5034303;28;20213;-79
2022/06/26 10:58:27;;;;;;;7.85;5.32;;;13.70;99.90;;;;;;5039337;28;20209;-79
2022/06/26 11:01:00;;;;;;;8.27;5.07;;;13.50;99.90;;;;;;5037016;28;20197;-79
2022/06/26 11:03:33;;;;;;;10.07;5.47;;;13.50;99.90;;;;;;5037230;28;20309;-79
2022/06/26 11:06:05;;;;;;;8.50;5.25;;;13.40;99.90;;;;;;5046337;28;20197;-79
2022/06/26 11:08:37;;;;;;;8.45;5.00;;;13.40;99.90;;;;;;5049051;28;20580;-79
2022/06/26 11:11:10;;;;;;;7.70;5.30;;;13.30;99.90;;;;;;5044333;28;20197;-79
2022/06/26 11:13:51;;;;;;;7.38;4.68;;;13.30;99.90;;;;;;5040416;28;20685;-78
2022/06/26 11:16:32;;;;;;;8.65;4.95;;;13.30;99.90;;;;;;5040572;28;20199;-79
2022/06/26 11:19:06;;;;;;;8.05;4.65;;;13.20;99.90;;;;;;5035244;28;20204;-78
2022/06/26 11:21:37;;;;;;;7.28;4.53;;;13.20;99.90;;;;;;5042450;28;20201;-79
2022/06/26 11:24:08;;;;;;;7.60;4.93;;;13.10;99.90;;;;;;5033290;28;20213;-78
2022/06/26 11:26:39;;;;;;;8.90;5.30;;;13.20;99.90;;;;;;5044963;28;20205;-78
2022/06/26 11:29:10;;;;;;;7.18;4.90;;;13.20;99.90;;;;;;5047884;28;20190;-78
2022/06/26 11:31:48;;;;;;;7.82;4.60;;;13.10;99.90;;;;;;5034953;28;20251;-78
2022/06/26 11:34:22;;;;;;;7.22;4.65;;;13.10;99.90;;;;;;5035493;28;20301;-78
2022/06/26 11:36:53;;;;;;;8.77;4.80;;;13.00;99.90;;;;;;5038552;28;20669;-78
2022/06/26 11:39:24;;;;;;;6.55;4.65;;;13.00;99.90;;;;;;5036176;28;20194;-78
2022/06/26 11:41:55;;;;;;;7.10;4.80;;;12.90;99.90;;;;;;5041816;28;20188;-78
2022/06/26 11:44:25;;;;;;;7.63;5.10;;;12.90;99.90;;;;;;5046975;28;20214;-78
2022/06/26 11:46:56;;;;;;;8.10;5.13;;;12.90;99.90;;;;;;5037533;28;20201;-79
2022/06/26 11:49:29;;;;;;;8.68;5.40;;;12.90;99.90;;;;;;5046076;28;20197;-79
2022/06/26 11:52:04;;;;;;;6.88;4.82;;;12.90;99.90;;;;;;5042908;28;20214;-79
2022/06/26 11:54:35;;;;;;;9.63;5.45;;;12.90;99.90;;;;;;5036317;28;20206;-79
2022/06/26 11:57:08;;;;;;;8.80;5.35;;;12.90;99.90;;;;;;5036489;28;20653;-79
2022/06/26 11:59:44;;;;;;;9.45;5.70;;;12.90;99.90;;;;;;5035805;28;20198;-78
2022/06/26 12:02:25;;;;;;;8.88;5.78;;;13.00;99.90;;;;;;5037375;28;20204;-79
2022/06/26 12:05:03;;;;;;;8.00;4.72;;;13.10;99.90;;;;;;5038376;28;20217;-79
2022/06/26 12:07:44;;;;;;;9.60;5.90;;;13.10;99.90;;;;;;5046646;28;20194;-78
2022/06/26 12:10:15;;;;;;;11.30;6.47;;;13.20;99.90;;;;;;5050978;28;20536;-78
2022/06/26 12:12:53;;;;;;;10.15;6.28;;;13.20;99.90;;;;;;5042207;28;20808;-79
2022/06/26 12:15:23;;;;;;;10.25;7.10;;;13.20;99.90;;;;;;5039898;28;20202;-78
2022/06/26 12:17:59;;;;;;;10.70;7.13;;;13.30;99.90;;;;;;5047182;28;20214;-79
2022/06/26 12:20:36;;;;;;;9.40;6.60;;;13.30;99.90;;;;;;5042881;28;20205;-79
2022/06/26 12:23:08;;;;;;;12.52;7.20;;;13.30;99.90;;;;;;5035763;28;20217;-79
2022/06/26 12:25:40;;;;;;;13.88;8.02;;;13.30;99.90;;;;;;5039165;28;20563;-78
2022/06/26 12:28:10;;;;;;;11.63;7.53;;;13.30;99.90;;;;;;5035817;28;20198;-79
2022/06/26 12:30:44;;;;;;;11.88;7.93;;;13.30;99.90;;;;;;5037838;28;20563;-79
2022/06/26 12:33:15;;;;;;;12.40;7.90;;;13.30;99.90;;;;;;5042041;28;20225;-79
2022/06/26 12:35:47;;;;;;;12.25;7.97;;;13.30;99.90;;;;;;5041867;28;20198;-78
2022/06/26 12:38:26;;;;;;;11.93;7.57;;;13.30;99.90;;;;;;5037788;28;20190;-78
2022/06/26 12:40:57;;;;;;;12.50;7.38;;;13.30;99.90;;;;;;5042315;28;20193;-78
2022/06/26 12:43:28;;;;;;;12.02;6.72;;;13.30;99.90;;;;;;5037930;28;20225;-78
2022/06/26 12:45:58;;;;;;;8.13;5.57;;;13.30;99.90;;;;;;5040999;28;20190;-77
2022/06/26 12:48:29;;;;;;;9.05;5.32;;;13.30;99.90;;;;;;5039002;28;20259;-78
2022/06/26 12:51:02;;;;;;;5.75;3.85;;;13.30;99.90;;;;;;5042350;28;20602;-78
2022/06/26 12:53:32;;;;;;;8.48;3.65;;;13.30;99.90;;;;;;5041299;28;20205;-78
2022/06/26 12:56:03;;;;;;;4.47;3.08;;;13.30;99.90;;;;;;5043243;28;20202;-78
2022/06/26 12:58:34;;;;;;;4.38;3.15;;;13.40;99.90;;;;;;5040109;28;20649;-78
2022/06/26 13:01:06;;;;;;;6.30;3.58;;;13.30;99.90;;;;;;5040027;28;20735;-78
2022/06/26 13:03:37;;;;;;;5.15;3.20;;;13.40;99.90;;;;;;5031803;28;20570;-78
2022/06/26 13:06:10;;;;;;;6.32;3.03;;;13.50;99.90;;;;;;5039683;28;20207;-78
2022/06/26 13:08:40;;;;;;;5.97;2.88;;;13.30;99.90;;;;;;5043942;28;20650;-77
2022/06/26 13:11:27;;;;;;;6.68;3.17;;;13.30;99.90;;;;;;5043908;28;20185;-78
2022/06/26 13:13:58;;;;;;;4.93;3.08;;;13.30;99.90;;;;;;5046060;28;20193;-78
2022/06/26 13:16:28;;;;;;;5.32;2.95;;;13.30;99.90;;;;;;5045285;28;20197;-77
2022/06/26 13:18:59;;;;;;;3.75;2.72;;;13.30;99.90;;;;;;5041320;28;20194;-78
2022/06/26 13:21:31;;;;;;;4.18;2.55;;;13.20;99.90;;;;;;5038486;28;20205;-78
2022/06/26 13:24:02;;;;;;;4.28;2.45;;;13.20;99.90;;;;;;5043236;28;20206;-77
2022/06/26 13:26:33;;;;;;;4.45;2.30;;;13.20;99.90;;;;;;5040127;28;20267;-77
2022/06/26 13:29:06;;;;;;;5.18;1.88;;;13.10;99.90;;;;;;5037384;28;20194;-77
2022/06/26 13:31:37;;;;;;;3.13;2.00;;;13.10;99.90;;;;;;5040835;28;20201;-78